createdAt,value
2023-05-24T00:02:02.655Z,20.70
2023-05-24T00:04:38.236Z,20.00
2023-05-24T00:07:14.360Z,20.58
2023-05-24T00:09:49.991Z,21.23
2023-05-24T00:12:36.934Z,20.00
2023-05-24T00:15:07.463Z,20.10
2023-05-24T00:17:43.152Z,20.85
2023-05-24T00:20:20.978Z,21.92
2023-05-24T00:22:59.885Z,21.48
2023-05-24T00:25:36.213Z,20.38
2023-05-24T00:28:13.612Z,21.63
2023-05-24T00:30:52.565Z,20.90
2023-05-24T00:33:36.630Z,22.38
2023-05-24T00:36:14.656Z,22.25
2023-05-24T00:39:03.677Z,22.08
2023-05-24T00:41:37.213Z,20.58
2023-05-24T00:44:11.245Z,21.02
2023-05-24T00:49:42.383Z,20.25
2023-05-24T00:52:18.206Z,21.33
2023-05-24T00:54:51.326Z,22.67
2023-05-24T00:57:27.674Z,20.77
2023-05-24T01:00:10.080Z,21.35
2023-05-24T01:02:45.738Z,22.67
2023-05-24T01:05:24.738Z,21.38
2023-05-24T01:08:13.926Z,22.90
2023-05-24T01:10:57.387Z,21.05
2023-05-24T01:13:46.193Z,19.98
2023-05-24T01:16:36.155Z,19.48
2023-05-24T01:19:33.259Z,19.48
2023-05-24T01:22:58.140Z,21.48
2023-05-24T01:26:00.163Z,20.77
2023-05-24T01:28:47.785Z,20.38
2023-05-24T01:31:18.433Z,21.70
2023-05-24T01:34:09.609Z,20.67
2023-05-24T01:36:47.665Z,20.23
2023-05-24T01:39:34.750Z,22.42
2023-05-24T01:42:42.383Z,20.25
2023-05-24T01:45:34.345Z,20.17
2023-05-24T01:48:22.928Z,19.98
2023-05-24T01:51:01.899Z,20.92
2023-05-24T01:53:51.082Z,20.30
2023-05-24T01:56:29.565Z,21.50
2023-05-24T01:59:04.107Z,20.23
2023-05-24T02:01:41.372Z,21.08
2023-05-24T02:04:18.288Z,22.52
2023-05-24T02:06:57.421Z,21.05
2023-05-24T02:09:37.392Z,23.25
2023-05-24T02:12:17.900Z,22.42
2023-05-24T02:14:57.474Z,23.75
2023-05-24T02:17:33.321Z,23.38
2023-05-24T02:20:09.477Z,23.73
2023-05-24T02:22:44.864Z,23.45
2023-05-24T02:25:21.376Z,22.17
2023-05-24T02:27:57.515Z,21.95
2023-05-24T02:30:38.712Z,22.35
2023-05-24T02:33:23.660Z,23.67
2023-05-24T02:35:50.991Z,23.55
2023-05-24T02:38:37.061Z,24.27
2023-05-24T02:41:31.865Z,25.58
2023-05-24T02:44:04.647Z,23.83
2023-05-24T02:46:42.583Z,23.60
2023-05-24T02:49:24.589Z,23.13
2023-05-24T02:51:57.281Z,24.42
2023-05-24T02:54:42.421Z,26.13
2023-05-24T02:57:23.869Z,25.23
2023-05-24T03:00:02.809Z,27.10
2023-05-24T03:02:49.708Z,24.52
2023-05-24T03:05:29.567Z,26.15
2023-05-24T03:08:15.306Z,26.60
2023-05-24T03:11:00.457Z,28.23
2023-05-24T03:13:34.311Z,29.85
2023-05-24T03:16:10.812Z,29.20
2023-05-24T03:18:52.351Z,30.90
2023-05-24T03:21:25.520Z,30.23
2023-05-24T03:24:15.974Z,29.40
2023-05-24T03:26:49.282Z,31.80
2023-05-24T03:29:25.784Z,30.90
2023-05-24T03:32:03.168Z,28.88
2023-05-24T03:34:45.151Z,29.75
2023-05-24T03:37:45.799Z,29.08
2023-05-24T03:40:25.925Z,29.85
2023-05-24T03:43:11.148Z,30.92
2023-05-24T03:46:09.859Z,31.73
2023-05-24T03:48:49.212Z,32.10
2023-05-24T03:51:36.379Z,31.95
2023-05-24T03:54:09.699Z,32.05
2023-05-24T03:56:45.187Z,34.63
2023-05-24T03:59:24.983Z,33.38
2023-05-24T04:02:06.425Z,34.55
2023-05-24T04:04:44.549Z,32.83
2023-05-24T04:07:26.328Z,31.85
2023-05-24T04:09:56.454Z,31.40
2023-05-24T04:12:37.086Z,32.72
2023-05-24T04:15:15.456Z,30.45
2023-05-24T04:17:55.090Z,31.27
2023-05-24T04:20:34.806Z,32.78
2023-05-24T04:23:11.559Z,32.20
2023-05-24T04:25:59.313Z,31.65
2023-05-24T04:28:50.200Z,29.90
2023-05-24T04:31:24.943Z,30.73
2023-05-24T04:34:10.119Z,32.05
2023-05-24T04:36:47.783Z,30.63
2023-05-24T04:39:35.301Z,29.52
2023-05-24T04:42:16.933Z,29.98
2023-05-24T04:45:02.079Z,30.35
2023-05-24T04:47:46.972Z,27.63
2023-05-24T04:50:29.291Z,27.27
2023-05-24T04:53:07.625Z,29.80
2023-05-24T04:55:56.095Z,23.45
2023-05-24T04:58:37.042Z,21.92
2023-05-24T05:01:14.929Z,18.55
2023-05-24T05:04:06.698Z,22.20
2023-05-24T05:06:48.579Z,23.58
2023-05-24T05:09:24.216Z,19.25
2023-05-24T05:12:00.004Z,19.63
2023-05-24T05:14:39.756Z,20.70
2023-05-24T05:17:19.322Z,24.90
2023-05-24T05:20:22.312Z,20.88
2023-05-24T05:23:19.029Z,26.20
2023-05-24T05:26:03.290Z,22.38
2023-05-24T05:28:42.362Z,21.65
2023-05-24T05:31:23.979Z,19.55
2023-05-24T05:33:56.926Z,23.55
2023-05-24T05:36:42.648Z,25.83
2023-05-24T05:39:31.939Z,23.80
2023-05-24T05:42:20.606Z,28.17
2023-05-24T05:44:58.137Z,18.70
2023-05-24T05:47:42.763Z,21.98
2023-05-24T05:53:02.483Z,14.60
2023-05-24T05:55:55.297Z,16.20
2023-05-24T05:58:36.643Z,15.77
2023-05-24T06:01:17.563Z,15.25
2023-05-24T06:03:57.377Z,15.30
2023-05-24T06:06:37.854Z,17.15
2023-05-24T06:09:16.307Z,15.63
2023-05-24T06:11:55.073Z,15.98
2023-05-24T06:14:36.245Z,17.15
2023-05-24T06:17:17.848Z,15.23
2023-05-24T06:19:57.343Z,14.65
2023-05-24T06:22:43.427Z,16.45
2023-05-24T06:25:22.716Z,15.75
2023-05-24T06:28:08.989Z,15.15
2023-05-24T06:30:50.320Z,15.13
2023-05-24T06:33:29.876Z,13.05
2023-05-24T06:36:05.558Z,14.93
2023-05-24T06:38:41.286Z,13.18
2023-05-24T06:41:24.281Z,13.23
2023-05-24T06:44:03.617Z,14.63
2023-05-24T06:46:48.034Z,13.20
2023-05-24T06:49:28.801Z,13.55
2023-05-24T06:52:13.962Z,13.35
2023-05-24T06:54:44.266Z,12.10
2023-05-24T06:57:25.366Z,13.02
2023-05-24T07:00:11.359Z,13.30
2023-05-24T07:02:58.309Z,13.25
2023-05-24T07:05:38.926Z,11.93
2023-05-24T07:08:17.227Z,12.07
2023-05-24T07:11:01.266Z,11.85
2023-05-24T07:13:47.639Z,11.15
2023-05-24T07:16:30.658Z,11.20
2023-05-24T07:19:14.143Z,10.75
2023-05-24T07:21:51.811Z,9.82
2023-05-24T07:24:35.341Z,10.25
2023-05-24T07:27:14.276Z,10.25
2023-05-24T07:29:50.194Z,9.20
2023-05-24T07:32:33.215Z,10.30
2023-05-24T07:35:23.920Z,9.90
2023-05-24T07:38:02.747Z,9.80
2023-05-24T07:40:43.415Z,8.75
2023-05-24T07:43:21.746Z,9.73
2023-05-24T07:46:08.102Z,9.73
2023-05-24T07:48:57.736Z,9.05
2023-05-24T07:51:35.344Z,8.82
2023-05-24T07:54:13.741Z,9.45
2023-05-24T07:57:03.099Z,10.43
2023-05-24T07:59:37.269Z,9.57
2023-05-24T08:02:18.325Z,9.93
2023-05-24T08:04:58.607Z,9.23
2023-05-24T08:07:48.550Z,10.13
2023-05-24T08:10:34.954Z,10.68
2023-05-24T08:13:15.806Z,9.98
2023-05-24T08:15:59.553Z,9.90
2023-05-24T08:18:43.082Z,10.30
2023-05-24T08:21:27.971Z,10.70
2023-05-24T08:24:09.155Z,9.73
2023-05-24T08:26:59.154Z,9.60
2023-05-24T08:29:44.394Z,10.02
2023-05-24T08:32:25.320Z,9.50
2023-05-24T08:35:06.850Z,9.55
2023-05-24T08:37:49.720Z,9.02
2023-05-24T08:40:33.816Z,8.88
2023-05-24T08:43:18.289Z,8.48
2023-05-24T08:46:03.364Z,10.23
2023-05-24T08:48:44.598Z,9.43
2023-05-24T08:51:32.247Z,8.63
2023-05-24T08:54:11.433Z,8.93
2023-05-24T08:56:57.696Z,8.82
2023-05-24T08:59:40.306Z,8.35
2023-05-24T09:02:21.694Z,9.00
2023-05-24T09:05:05.282Z,8.45
2023-05-24T09:07:45.271Z,9.55
2023-05-24T09:10:53.858Z,9.02
2023-05-24T09:13:39.643Z,8.52
2023-05-24T09:16:22.890Z,9.15
2023-05-24T09:19:10.109Z,9.48
2023-05-24T09:21:53.722Z,7.90
2023-05-24T09:24:35.230Z,8.88
2023-05-24T09:27:18.033Z,8.20
2023-05-24T09:29:54.110Z,8.18
2023-05-24T09:32:35.370Z,8.00
2023-05-24T09:35:18.517Z,8.02
2023-05-24T09:38:03.599Z,7.32
2023-05-24T09:40:44.387Z,7.88
2023-05-24T09:43:20.275Z,8.10
2023-05-24T09:46:04.877Z,7.70
2023-05-24T09:48:59.854Z,7.45
2023-05-24T09:51:36.739Z,7.15
2023-05-24T09:54:23.908Z,7.05
2023-05-24T09:57:07.125Z,7.18
2023-05-24T09:59:46.852Z,7.20
2023-05-24T10:02:35.461Z,6.82
2023-05-24T10:05:22.274Z,6.03
2023-05-24T10:08:04.947Z,6.70
2023-05-24T10:10:52.082Z,6.00
2023-05-24T10:13:30.147Z,5.97
2023-05-24T10:16:16.951Z,6.13
2023-05-24T10:19:00.273Z,6.18
2023-05-24T10:21:40.420Z,10.20
2023-05-24T10:24:18.209Z,5.57
2023-05-24T10:26:58.998Z,6.50
2023-05-24T10:30:00.281Z,6.40
2023-05-24T10:32:32.778Z,6.25
2023-05-24T10:35:10.371Z,5.70
2023-05-24T10:37:49.945Z,5.75
2023-05-24T10:40:25.914Z,5.38
2023-05-24T10:43:10.395Z,5.15
2023-05-24T10:46:02.105Z,4.75
2023-05-24T10:48:44.037Z,5.78
2023-05-24T10:51:38.598Z,5.53
2023-05-24T10:54:25.198Z,6.20
2023-05-24T10:57:03.022Z,5.05
2023-05-24T10:59:41.903Z,5.72
2023-05-24T11:02:21.620Z,5.32
2023-05-24T11:05:14.450Z,6.07
2023-05-24T11:07:53.414Z,5.80
2023-05-24T11:10:32.375Z,5.70
2023-05-24T11:13:08.719Z,6.72
2023-05-24T11:15:55.457Z,5.80
2023-05-24T11:18:28.572Z,7.13
2023-05-24T11:21:10.745Z,6.90
2023-05-24T11:23:49.518Z,6.75
2023-05-24T11:26:34.177Z,6.80
2023-05-24T11:29:18.074Z,6.18
2023-05-24T11:32:17.128Z,6.32
2023-05-24T11:34:56.385Z,6.20
2023-05-24T11:37:46.090Z,6.35
2023-05-24T11:40:22.560Z,6.45
2023-05-24T11:43:01.722Z,5.82
2023-05-24T11:45:42.412Z,6.57
2023-05-24T11:48:22.035Z,6.47
2023-05-24T11:50:50.713Z,5.57
2023-05-24T11:53:45.750Z,5.65
2023-05-24T11:56:33.584Z,5.53
2023-05-24T11:59:43.308Z,5.47
2023-05-24T12:02:22.744Z,5.57
2023-05-24T12:05:18.514Z,6.38
2023-05-24T12:07:54.055Z,6.15
2023-05-24T12:10:32.826Z,6.32
2023-05-24T12:13:29.247Z,6.35
2023-05-24T12:16:11.927Z,5.30
2023-05-24T12:19:05.416Z,4.65
2023-05-24T12:21:47.246Z,4.75
2023-05-24T12:24:43.102Z,5.77
2023-05-24T12:27:25.129Z,5.20
2023-05-24T12:30:18.876Z,5.60
2023-05-24T12:33:00.961Z,4.95
2023-05-24T12:35:36.482Z,5.40
2023-05-24T12:38:23.279Z,4.57
2023-05-24T12:43:56.179Z,5.30
2023-05-24T12:46:44.221Z,5.35
2023-05-24T12:49:39.585Z,5.22
2023-05-24T12:52:32.645Z,4.82
2023-05-24T12:55:14.522Z,5.22
2023-05-24T12:58:00.073Z,4.97
2023-05-24T13:00:47.035Z,4.63
2023-05-24T13:03:38.518Z,4.97
2023-05-24T13:06:26.726Z,4.68
2023-05-24T13:09:35.226Z,4.63
2023-05-24T13:12:21.935Z,4.72
2023-05-24T13:15:06.336Z,4.65
2023-05-24T13:17:52.625Z,5.05
2023-05-24T13:20:41.471Z,4.65
2023-05-24T13:23:23.644Z,4.80
2023-05-24T13:26:09.630Z,4.93
2023-05-24T13:29:39.245Z,4.63
2023-05-24T13:32:23.058Z,4.30
2023-05-24T13:35:13.202Z,4.38
2023-05-24T13:37:59.437Z,4.25
2023-05-24T13:40:42.371Z,4.72
2023-05-24T13:43:26.231Z,4.80
2023-05-24T13:46:02.934Z,4.40
2023-05-24T13:48:54.827Z,5.70
2023-05-24T13:51:47.795Z,4.93
2023-05-24T13:54:37.325Z,4.50
2023-05-24T13:57:17.350Z,4.00
2023-05-24T14:00:06.770Z,4.35
2023-05-24T14:03:08.415Z,4.63
2023-05-24T14:06:10.782Z,4.95
2023-05-24T14:08:56.023Z,5.70
2023-05-24T14:11:40.426Z,4.80
2023-05-24T14:14:58.504Z,4.60
2023-05-24T14:17:37.883Z,4.28
2023-05-24T14:20:23.691Z,4.53
2023-05-24T14:23:03.686Z,4.88
2023-05-24T14:25:47.529Z,4.38
2023-05-24T14:28:33.562Z,3.92
2023-05-24T14:31:18.983Z,4.10
2023-05-24T14:34:00.272Z,4.10
2023-05-24T14:36:50.275Z,4.68
2023-05-24T14:39:32.147Z,4.45
2023-05-24T14:42:26.674Z,4.47
2023-05-24T14:45:15.306Z,4.15
2023-05-24T14:47:53.221Z,4.10
2023-05-24T14:50:41.207Z,4.00
2023-05-24T14:53:26.328Z,4.25
2023-05-24T14:56:15.238Z,4.07
2023-05-24T14:58:59.019Z,3.65
2023-05-24T15:04:20.336Z,4.20
2023-05-24T15:07:01.529Z,4.45
2023-05-24T15:09:43.597Z,5.07
2023-05-24T15:12:27.369Z,4.70
2023-05-24T15:15:14.755Z,4.68
2023-05-24T15:18:06.126Z,4.28
2023-05-24T15:20:49.675Z,4.38
2023-05-24T15:23:33.850Z,4.53
2023-05-24T15:26:16.715Z,4.60
2023-05-24T15:29:04.004Z,4.27
2023-05-24T15:31:44.299Z,4.43
2023-05-24T15:34:23.664Z,4.38
2023-05-24T15:37:15.273Z,4.60
2023-05-24T15:39:45.290Z,4.50
2023-05-24T15:42:27.280Z,4.40
2023-05-24T15:45:21.020Z,4.68
2023-05-24T15:48:05.640Z,4.68
2023-05-24T15:51:09.303Z,4.60
2023-05-24T15:53:59.350Z,3.80
2023-05-24T15:56:45.652Z,3.97
2023-05-24T15:59:30.290Z,4.15
2023-05-24T16:02:11.420Z,4.30
2023-05-24T16:05:09.124Z,4.07
2023-05-24T16:07:45.282Z,4.50
2023-05-24T16:10:24.468Z,4.45
2023-05-24T16:13:15.930Z,4.13
2023-05-24T16:15:52.407Z,4.63
2023-05-24T16:18:37.277Z,4.22
2023-05-24T16:21:29.316Z,4.30
2023-05-24T16:24:20.225Z,4.38
2023-05-24T16:26:55.041Z,4.55
2023-05-24T16:29:43.551Z,4.38
2023-05-24T16:32:31.416Z,3.95
2023-05-24T16:35:23.255Z,4.85
2023-05-24T16:38:09.098Z,4.38
2023-05-24T16:40:55.251Z,4.72
2023-05-24T16:46:19.937Z,4.38
2023-05-24T16:48:58.495Z,4.75
2023-05-24T16:51:42.105Z,4.43
2023-05-24T16:54:26.304Z,5.00
2023-05-24T16:57:11.083Z,4.93
2023-05-24T16:59:56.508Z,4.80
2023-05-24T17:02:38.407Z,4.65
2023-05-24T17:05:18.329Z,5.22
2023-05-24T17:08:02.467Z,5.13
2023-05-24T17:11:03.237Z,4.88
2023-05-24T17:13:49.332Z,5.10
2023-05-24T17:16:42.424Z,5.53
2023-05-24T17:19:39.865Z,5.78
2023-05-24T17:22:22.147Z,5.18
2023-05-24T17:25:04.364Z,5.22
2023-05-24T17:27:50.501Z,5.80
2023-05-24T17:30:33.884Z,5.50
2023-05-24T17:33:16.326Z,5.13
2023-05-24T17:36:12.210Z,5.57
2023-05-24T17:38:50.817Z,5.72
2023-05-24T17:41:38.237Z,5.10
2023-05-24T17:44:26.114Z,4.57
2023-05-24T17:47:17.386Z,4.90
2023-05-24T17:49:58.114Z,4.60
2023-05-24T17:52:39.482Z,5.25
2023-05-24T17:55:24.496Z,5.45
2023-05-24T17:58:15.832Z,6.07
2023-05-24T18:01:16.344Z,5.60
2023-05-24T18:03:55.311Z,5.97
2023-05-24T18:06:34.291Z,5.30
2023-05-24T18:09:19.015Z,5.45
2023-05-24T18:12:11.200Z,4.88
2023-05-24T18:15:01.087Z,4.80
2023-05-24T18:17:37.369Z,5.10
2023-05-24T18:20:26.845Z,5.10
2023-05-24T18:23:09.880Z,5.30
2023-05-24T18:26:02.436Z,5.57
2023-05-24T18:28:51.792Z,6.85
2023-05-24T18:31:25.040Z,5.90
2023-05-24T18:34:06.826Z,6.10
2023-05-24T18:36:53.220Z,6.50
2023-05-24T18:39:50.855Z,5.90
2023-05-24T18:42:31.402Z,5.85
2023-05-24T18:45:19.458Z,6.20
2023-05-24T18:48:08.314Z,6.32
2023-05-24T18:50:51.096Z,6.88
2023-05-24T18:53:35.472Z,6.47
2023-05-24T18:56:26.423Z,6.45
2023-05-24T18:59:20.884Z,7.50
2023-05-24T19:02:02.617Z,7.43
2023-05-24T19:04:54.557Z,7.45
2023-05-24T19:07:45.083Z,6.90
2023-05-24T19:10:26.302Z,7.30
2023-05-24T19:13:07.356Z,7.10
2023-05-24T19:16:04.431Z,7.07
2023-05-24T19:18:54.971Z,7.95
2023-05-24T19:22:02.489Z,8.88
2023-05-24T19:24:57.282Z,8.45
2023-05-24T19:27:47.763Z,8.20
2023-05-24T19:30:39.215Z,8.35
2023-05-24T19:33:25.268Z,7.90
2023-05-24T19:36:13.340Z,8.82
2023-05-24T19:38:51.506Z,8.50
2023-05-24T19:41:33.202Z,8.40
2023-05-24T19:44:22.985Z,7.57
2023-05-24T19:47:00.650Z,8.18
2023-05-24T19:49:47.446Z,8.27
2023-05-24T19:52:28.189Z,9.73
2023-05-24T19:55:17.671Z,9.45
2023-05-24T19:58:10.614Z,10.18
2023-05-24T20:00:49.485Z,9.43
2023-05-24T20:03:42.601Z,11.27
2023-05-24T20:06:34.428Z,11.27
2023-05-24T20:09:31.559Z,10.85
2023-05-24T20:12:26.124Z,10.23
2023-05-24T20:15:13.538Z,11.27
2023-05-24T20:17:55.091Z,13.07
2023-05-24T20:20:45.353Z,12.10
2023-05-24T20:23:37.107Z,12.93
2023-05-24T20:26:32.705Z,12.77
2023-05-24T20:29:21.434Z,11.20
2023-05-24T20:32:37.076Z,11.52
2023-05-24T20:38:07.215Z,11.45
2023-05-24T20:41:05.628Z,11.98
2023-05-24T20:43:53.391Z,12.68
2023-05-24T20:46:50.237Z,11.25
2023-05-24T20:49:48.206Z,10.90
2023-05-24T20:52:48.437Z,10.90
2023-05-24T20:55:34.285Z,11.50
2023-05-24T20:58:25.394Z,12.07
2023-05-24T21:01:12.134Z,10.65
2023-05-24T21:04:10.571Z,10.80
2023-05-24T21:06:59.805Z,10.98
2023-05-24T21:09:37.767Z,10.90
2023-05-24T21:12:35.162Z,10.90
2023-05-24T21:18:21.320Z,10.57
2023-05-24T21:21:15.816Z,10.88
2023-05-24T21:23:59.401Z,11.48
2023-05-24T21:26:59.909Z,11.25
2023-05-24T21:29:44.150Z,12.18
2023-05-24T21:32:46.256Z,13.32
2023-05-24T21:35:41.905Z,12.85
2023-05-24T21:38:34.618Z,14.88
2023-05-24T21:41:24.465Z,13.35
2023-05-24T21:44:18.449Z,14.05
2023-05-24T21:47:05.020Z,15.57
2023-05-24T21:50:01.617Z,12.90
2023-05-24T21:53:08.448Z,12.40
2023-05-24T21:55:56.492Z,13.57
2023-05-24T21:58:36.302Z,16.90
2023-05-24T22:01:24.850Z,26.27
2023-05-24T22:04:12.348Z,31.88
2023-05-24T22:07:03.104Z,27.63
2023-05-24T22:09:54.351Z,21.75
2023-05-24T22:12:40.076Z,18.42
2023-05-24T22:15:26.666Z,17.35
2023-05-24T22:18:10.579Z,18.02
2023-05-24T22:20:59.144Z,20.75
2023-05-24T22:27:27.255Z,23.38
2023-05-24T22:30:32.682Z,21.85
2023-05-24T22:33:22.568Z,19.92
2023-05-24T22:36:09.777Z,19.70
2023-05-24T22:39:00.691Z,21.70
2023-05-24T22:41:49.629Z,21.20
2023-05-24T22:44:39.273Z,21.90
2023-05-24T22:50:49.301Z,19.83
2023-05-24T22:53:48.006Z,21.48
2023-05-24T22:56:59.912Z,21.52
2023-05-24T22:59:57.326Z,22.15
2023-05-24T23:02:57.259Z,23.10
2023-05-24T23:06:23.576Z,27.35
2023-05-24T23:09:08.310Z,22.85
2023-05-24T23:11:59.871Z,23.55
2023-05-24T23:15:01.539Z,22.70
2023-05-24T23:21:43.135Z,20.98
2023-05-24T23:24:42.620Z,21.20
2023-05-24T23:27:32.568Z,21.05
2023-05-24T23:30:20.727Z,20.27
2023-05-24T23:33:24.091Z,22.08
2023-05-24T23:36:19.479Z,20.60
2023-05-24T23:39:00.827Z,23.48
2023-05-24T23:41:51.311Z,24.23
2023-05-24T23:44:34.469Z,22.77
2023-05-24T23:47:31.011Z,22.02
2023-05-24T23:50:39.990Z,24.30
2023-05-24T23:53:42.521Z,22.27
2023-05-24T23:56:34.281Z,22.65
2023-05-24T23:59:05.640Z,22.80
